Vremea mâine în Geoagiu - Romania

Vrei sa afli care e starea vremii acum in Arad - Romania? Dorim sa iti furnizam starea vremii pentru Arad - Romania. Starea vremii Arad - Romania pentru astazi.

Vremea mâine în Geoagiu

Temperatura minimă:
7 °C

Temperatura maximă:
23.8 °C

Mâine va fi: Senin
Precipitații: 0 %
Umiditate: 60%
Viteza maximă vânt mâine:
10.4 km/h

Evoluția vremii in Geoagiu pe ore mâine

Ora: 04:00
Temperatura: °C
Sansa de precipitatii: %
Ora Descriere Temp Se simte Precipitatii Umiditate Vant
00:00Senin9.4°9.4°0%76%SSW 1.4 KM/H
01:00Senin8.8°8.8°0%78%SSE 1.4 KM/H
02:00Senin8.4°8.4°0%81%SSE 1.4 KM/H
03:00Senin0%83%SE 1.4 KM/H
04:00Senin7.7°7.7°0%84%ESE 1.8 KM/H
05:00Senin7.3°7.3°0%85%ESE 1.8 KM/H
06:00Senin0%86%ESE 1.8 KM/H
07:00Senin7.9°7.9°0%83%ESE 2.5 KM/H
08:00Senin12.7°13.4°0%73%ESE 3.2 KM/H
09:00Senin15.5°15.5°0%64%ESE 3.6 KM/H
10:00Senin17.7°17.7°0%58%ESE 4.3 KM/H
11:00Senin19.6°19.6°0%52%E 6.1 KM/H
12:00Senin21.2°21.2°0%45%E 8.6 KM/H
13:00Senin22.5°24°0%37%E 9.7 KM/H
14:00Senin23.2°24°0%33%E 10.4 KM/H
15:00Senin23.6°24.1°0%32%E 9.7 KM/H
16:00Senin23.8°24.1°0%31%E 8.3 KM/H
17:00Senin23.7°24.1°0%31%E 5.8 KM/H
18:00Senin23.1°24.1°0%35%E 4.7 KM/H
19:00Senin21.3°21.3°0%48%ESE 4 KM/H
20:00Senin15.5°15.6°0%58%ESE 2.5 KM/H
21:00Senin13°13°0%63%SSE 1.4 KM/H
22:00Senin12.3°12.3°0%66%SE 2.5 KM/H
23:00Senin11.6°12.1°0%69%SE 3.2 KM/H




tutorials